sensor_id;sensor_type;location;lat;lon;timestamp;P1;durP1;ratioP1;P2;durP2;ratioP2
22916;SDS011;11624;53.250;7.456;2023-07-16T00:00:29;10.70;;;3.20;;
22916;SDS011;11624;53.250;7.456;2023-07-16T00:02:58;11.10;;;2.80;;
22916;SDS011;11624;53.250;7.456;2023-07-16T00:05:26;11.98;;;2.95;;
22916;SDS011;11624;53.250;7.456;2023-07-16T00:07:54;8.93;;;2.75;;
22916;SDS011;11624;53.250;7.456;2023-07-16T00:10:23;8.32;;;2.30;;
22916;SDS011;11624;53.250;7.456;2023-07-16T00:12:52;10.07;;;3.10;;
22916;SDS011;11624;53.250;7.456;2023-07-16T00:15:21;12.73;;;3.63;;
22916;SDS011;11624;53.250;7.456;2023-07-16T00:17:49;9.43;;;3.20;;
22916;SDS011;11624;53.250;7.456;2023-07-16T00:20:18;11.10;;;3.22;;
22916;SDS011;11624;53.250;7.456;2023-07-16T00:22:46;12.90;;;3.10;;
22916;SDS011;11624;53.250;7.456;2023-07-16T00:25:14;13.73;;;2.72;;
22916;SDS011;11624;53.250;7.456;2023-07-16T00:27:43;11.82;;;3.38;;
22916;SDS011;11624;53.250;7.456;2023-07-16T00:30:13;7.35;;;2.67;;
22916;SDS011;11624;53.250;7.456;2023-07-16T00:32:41;10.15;;;2.92;;
22916;SDS011;11624;53.250;7.456;2023-07-16T00:35:10;11.07;;;3.40;;
22916;SDS011;11624;53.250;7.456;2023-07-16T00:37:38;9.23;;;2.78;;
22916;SDS011;11624;53.250;7.456;2023-07-16T00:40:07;14.65;;;3.03;;
22916;SDS011;11624;53.250;7.456;2023-07-16T00:42:36;8.63;;;2.90;;
22916;SDS011;11624;53.250;7.456;2023-07-16T00:45:06;10.23;;;2.83;;
22916;SDS011;11624;53.250;7.456;2023-07-16T00:47:39;7.95;;;2.67;;
22916;SDS011;11624;53.250;7.456;2023-07-16T00:50:10;11.98;;;3.28;;
22916;SDS011;11624;53.250;7.456;2023-07-16T00:52:39;9.30;;;3.00;;
22916;SDS011;11624;53.250;7.456;2023-07-16T00:55:08;9.80;;;2.70;;
22916;SDS011;11624;53.250;7.456;2023-07-16T00:57:37;8.23;;;2.70;;
22916;SDS011;11624;53.250;7.456;2023-07-16T01:00:08;10.75;;;3.13;;
22916;SDS011;11624;53.250;7.456;2023-07-16T01:02:37;13.10;;;3.35;;
22916;SDS011;11624;53.250;7.456;2023-07-16T01:05:08;12.90;;;3.13;;
22916;SDS011;11624;53.250;7.456;2023-07-16T01:07:36;9.00;;;2.78;;
22916;SDS011;11624;53.250;7.456;2023-07-16T01:10:07;14.15;;;3.03;;
22916;SDS011;11624;53.250;7.456;2023-07-16T01:12:37;14.32;;;3.28;;
22916;SDS011;11624;53.250;7.456;2023-07-16T01:15:07;11.63;;;3.25;;
22916;SDS011;11624;53.250;7.456;2023-07-16T01:17:39;10.55;;;3.08;;
22916;SDS011;11624;53.250;7.456;2023-07-16T01:20:08;9.63;;;2.90;;
22916;SDS011;11624;53.250;7.456;2023-07-16T01:22:46;15.23;;;3.60;;
22916;SDS011;11624;53.250;7.456;2023-07-16T01:25:31;14.50;;;2.85;;
22916;SDS011;11624;53.250;7.456;2023-07-16T01:28:21;15.52;;;3.28;;
22916;SDS011;11624;53.250;7.456;2023-07-16T01:31:03;9.30;;;2.60;;
22916;SDS011;11624;53.250;7.456;2023-07-16T01:33:33;12.23;;;3.17;;
22916;SDS011;11624;53.250;7.456;2023-07-16T01:36:02;10.43;;;3.22;;
22916;SDS011;11624;53.250;7.456;2023-07-16T01:38:31;12.45;;;3.20;;
22916;SDS011;11624;53.250;7.456;2023-07-16T01:41:00;10.15;;;3.15;;
22916;SDS011;11624;53.250;7.456;2023-07-16T01:43:29;12.85;;;3.35;;
22916;SDS011;11624;53.250;7.456;2023-07-16T01:45:58;9.93;;;2.95;;
22916;SDS011;11624;53.250;7.456;2023-07-16T01:48:30;10.10;;;3.20;;
22916;SDS011;11624;53.250;7.456;2023-07-16T01:50:59;10.93;;;3.17;;
22916;SDS011;11624;53.250;7.456;2023-07-16T01:53:28;13.43;;;3.45;;
22916;SDS011;11624;53.250;7.456;2023-07-16T01:55:56;12.07;;;3.10;;
22916;SDS011;11624;53.250;7.456;2023-07-16T01:58:25;8.57;;;2.92;;
22916;SDS011;11624;53.250;7.456;2023-07-16T02:00:53;10.88;;;2.92;;
22916;SDS011;11624;53.250;7.456;2023-07-16T02:03:22;15.23;;;3.63;;
22916;SDS011;11624;53.250;7.456;2023-07-16T02:05:52;12.77;;;3.05;;
22916;SDS011;11624;53.250;7.456;2023-07-16T02:08:20;11.45;;;3.45;;
22916;SDS011;11624;53.250;7.456;2023-07-16T02:10:49;10.70;;;3.08;;
22916;SDS011;11624;53.250;7.456;2023-07-16T02:13:17;11.75;;;3.30;;
22916;SDS011;11624;53.250;7.456;2023-07-16T02:15:46;15.23;;;3.88;;
22916;SDS011;11624;53.250;7.456;2023-07-16T02:18:14;14.25;;;3.67;;
22916;SDS011;11624;53.250;7.456;2023-07-16T02:20:43;14.38;;;3.65;;
22916;SDS011;11624;53.250;7.456;2023-07-16T02:23:13;12.88;;;3.53;;
22916;SDS011;11624;53.250;7.456;2023-07-16T02:25:41;10.88;;;3.30;;
22916;SDS011;11624;53.250;7.456;2023-07-16T02:28:10;13.25;;;3.00;;
22916;SDS011;11624;53.250;7.456;2023-07-16T02:30:40;11.45;;;2.90;;
22916;SDS011;11624;53.250;7.456;2023-07-16T02:33:11;9.77;;;3.10;;
22916;SDS011;11624;53.250;7.456;2023-07-16T02:35:39;9.38;;;2.88;;
22916;SDS011;11624;53.250;7.456;2023-07-16T02:38:07;12.80;;;3.38;;
22916;SDS011;11624;53.250;7.456;2023-07-16T02:40:37;10.77;;;3.20;;
22916;SDS011;11624;53.250;7.456;2023-07-16T02:43:10;11.25;;;3.15;;
22916;SDS011;11624;53.250;7.456;2023-07-16T02:45:39;12.95;;;3.67;;
22916;SDS011;11624;53.250;7.456;2023-07-16T02:48:08;11.52;;;3.40;;
22916;SDS011;11624;53.250;7.456;2023-07-16T02:50:36;11.25;;;3.22;;
22916;SDS011;11624;53.250;7.456;2023-07-16T02:53:05;10.95;;;3.80;;
22916;SDS011;11624;53.250;7.456;2023-07-16T02:55:34;12.63;;;3.92;;
22916;SDS011;11624;53.250;7.456;2023-07-16T02:58:04;11.90;;;3.72;;
22916;SDS011;11624;53.250;7.456;2023-07-16T03:00:33;14.15;;;3.70;;
22916;SDS011;11624;53.250;7.456;2023-07-16T03:03:01;12.27;;;3.67;;
22916;SDS011;11624;53.250;7.456;2023-07-16T03:05:30;13.65;;;3.72;;
22916;SDS011;11624;53.250;7.456;2023-07-16T03:07:58;16.15;;;4.22;;
22916;SDS011;11624;53.250;7.456;2023-07-16T03:10:29;10.63;;;3.72;;
22916;SDS011;11624;53.250;7.456;2023-07-16T03:12:57;12.38;;;3.78;;
22916;SDS011;11624;53.250;7.456;2023-07-16T03:15:28;13.05;;;3.40;;
22916;SDS011;11624;53.250;7.456;2023-07-16T03:17:56;14.70;;;4.22;;
22916;SDS011;11624;53.250;7.456;2023-07-16T03:20:25;13.13;;;4.05;;
22916;SDS011;11624;53.250;7.456;2023-07-16T03:22:53;14.10;;;4.30;;
22916;SDS011;11624;53.250;7.456;2023-07-16T03:25:22;19.83;;;4.53;;
22916;SDS011;11624;53.250;7.456;2023-07-16T03:27:50;15.07;;;4.18;;
22916;SDS011;11624;53.250;7.456;2023-07-16T03:30:19;12.55;;;3.80;;
22916;SDS011;11624;53.250;7.456;2023-07-16T03:32:49;11.55;;;3.65;;
22916;SDS011;11624;53.250;7.456;2023-07-16T03:35:22;14.18;;;3.67;;
22916;SDS011;11624;53.250;7.456;2023-07-16T03:37:52;12.65;;;3.78;;
22916;SDS011;11624;53.250;7.456;2023-07-16T03:40:23;12.80;;;3.58;;
22916;SDS011;11624;53.250;7.456;2023-07-16T03:42:53;11.20;;;3.63;;
22916;SDS011;11624;53.250;7.456;2023-07-16T03:45:23;12.63;;;4.00;;
22916;SDS011;11624;53.250;7.456;2023-07-16T03:47:54;10.85;;;3.13;;
22916;SDS011;11624;53.250;7.456;2023-07-16T03:50:22;10.82;;;3.70;;
22916;SDS011;11624;53.250;7.456;2023-07-16T03:52:51;12.27;;;3.38;;
22916;SDS011;11624;53.250;7.456;2023-07-16T03:55:19;14.32;;;3.55;;
22916;SDS011;11624;53.250;7.456;2023-07-16T03:57:48;15.45;;;4.50;;
22916;SDS011;11624;53.250;7.456;2023-07-16T04:00:17;13.20;;;4.28;;
22916;SDS011;11624;53.250;7.456;2023-07-16T04:02:48;15.10;;;3.60;;
22916;SDS011;11624;53.250;7.456;2023-07-16T04:05:18;15.73;;;3.78;;
22916;SDS011;11624;53.250;7.456;2023-07-16T04:07:50;11.63;;;3.75;;
22916;SDS011;11624;53.250;7.456;2023-07-16T04:10:18;15.05;;;4.03;;
22916;SDS011;11624;53.250;7.456;2023-07-16T04:12:47;11.65;;;4.03;;
22916;SDS011;11624;53.250;7.456;2023-07-16T04:15:15;14.25;;;4.93;;
22916;SDS011;11624;53.250;7.456;2023-07-16T04:17:44;14.52;;;4.13;;
22916;SDS011;11624;53.250;7.456;2023-07-16T04:20:12;14.63;;;3.97;;
22916;SDS011;11624;53.250;7.456;2023-07-16T04:22:42;13.98;;;4.10;;
22916;SDS011;11624;53.250;7.456;2023-07-16T04:25:10;15.77;;;4.32;;
22916;SDS011;11624;53.250;7.456;2023-07-16T04:27:40;14.95;;;3.90;;
22916;SDS011;11624;53.250;7.456;2023-07-16T04:30:10;14.43;;;4.50;;
22916;SDS011;11624;53.250;7.456;2023-07-16T04:32:39;13.18;;;3.97;;
22916;SDS011;11624;53.250;7.456;2023-07-16T04:35:08;12.73;;;3.85;;
22916;SDS011;11624;53.250;7.456;2023-07-16T04:37:36;11.20;;;4.07;;
22916;SDS011;11624;53.250;7.456;2023-07-16T04:40:07;10.80;;;3.42;;
22916;SDS011;11624;53.250;7.456;2023-07-16T04:42:36;15.63;;;4.20;;
22916;SDS011;11624;53.250;7.456;2023-07-16T04:45:04;12.93;;;4.30;;
22916;SDS011;11624;53.250;7.456;2023-07-16T04:47:33;14.15;;;4.68;;
22916;SDS011;11624;53.250;7.456;2023-07-16T04:50:02;18.00;;;4.82;;
22916;SDS011;11624;53.250;7.456;2023-07-16T04:52:31;13.27;;;4.32;;
22916;SDS011;11624;53.250;7.456;2023-07-16T04:54:59;17.73;;;4.35;;
22916;SDS011;11624;53.250;7.456;2023-07-16T04:57:29;16.00;;;4.18;;
22916;SDS011;11624;53.250;7.456;2023-07-16T04:59:57;15.02;;;4.15;;
22916;SDS011;11624;53.250;7.456;2023-07-16T05:02:26;15.52;;;4.72;;
22916;SDS011;11624;53.250;7.456;2023-07-16T05:04:54;14.35;;;4.28;;
22916;SDS011;11624;53.250;7.456;2023-07-16T05:07:22;15.35;;;4.32;;
22916;SDS011;11624;53.250;7.456;2023-07-16T05:09:51;17.38;;;4.20;;
22916;SDS011;11624;53.250;7.456;2023-07-16T05:12:19;16.80;;;5.15;;
22916;SDS011;11624;53.250;7.456;2023-07-16T05:14:49;18.05;;;5.05;;
22916;SDS011;11624;53.250;7.456;2023-07-16T05:17:19;12.93;;;3.92;;
22916;SDS011;11624;53.250;7.456;2023-07-16T05:19:47;16.52;;;4.43;;
22916;SDS011;11624;53.250;7.456;2023-07-16T05:22:15;14.90;;;4.03;;
22916;SDS011;11624;53.250;7.456;2023-07-16T05:24:44;15.07;;;4.07;;
22916;SDS011;11624;53.250;7.456;2023-07-16T05:27:12;12.43;;;4.43;;
22916;SDS011;11624;53.250;7.456;2023-07-16T05:29:40;12.90;;;4.22;;
22916;SDS011;11624;53.250;7.456;2023-07-16T05:32:10;12.90;;;4.50;;
22916;SDS011;11624;53.250;7.456;2023-07-16T05:34:39;12.18;;;4.13;;
22916;SDS011;11624;53.250;7.456;2023-07-16T05:37:07;13.38;;;4.50;;
22916;SDS011;11624;53.250;7.456;2023-07-16T05:39:35;14.68;;;4.43;;
22916;SDS011;11624;53.250;7.456;2023-07-16T05:42:05;15.98;;;4.68;;
22916;SDS011;11624;53.250;7.456;2023-07-16T05:44:34;18.88;;;4.90;;
22916;SDS011;11624;53.250;7.456;2023-07-16T05:47:03;13.90;;;4.18;;
22916;SDS011;11624;53.250;7.456;2023-07-16T05:49:33;13.02;;;3.85;;
22916;SDS011;11624;53.250;7.456;2023-07-16T05:52:02;13.23;;;3.92;;
22916;SDS011;11624;53.250;7.456;2023-07-16T05:54:30;15.30;;;4.40;;
22916;SDS011;11624;53.250;7.456;2023-07-16T05:56:59;10.98;;;3.72;;
22916;SDS011;11624;53.250;7.456;2023-07-16T05:59:27;12.80;;;3.45;;
22916;SDS011;11624;53.250;7.456;2023-07-16T06:01:56;13.73;;;3.90;;
22916;SDS011;11624;53.250;7.456;2023-07-16T06:04:25;12.27;;;3.42;;
22916;SDS011;11624;53.250;7.456;2023-07-16T06:06:55;14.38;;;3.53;;
22916;SDS011;11624;53.250;7.456;2023-07-16T06:09:24;12.20;;;3.30;;
22916;SDS011;11624;53.250;7.456;2023-07-16T06:11:52;15.13;;;4.38;;
22916;SDS011;11624;53.250;7.456;2023-07-16T06:14:21;11.82;;;3.47;;
22916;SDS011;11624;53.250;7.456;2023-07-16T06:16:49;14.48;;;3.72;;
22916;SDS011;11624;53.250;7.456;2023-07-16T06:19:19;16.85;;;3.95;;
22916;SDS011;11624;53.250;7.456;2023-07-16T06:21:47;15.73;;;3.55;;
22916;SDS011;11624;53.250;7.456;2023-07-16T06:24:17;16.25;;;3.97;;
22916;SDS011;11624;53.250;7.456;2023-07-16T06:26:45;13.40;;;3.88;;
22916;SDS011;11624;53.250;7.456;2023-07-16T06:29:14;12.43;;;3.63;;
22916;SDS011;11624;53.250;7.456;2023-07-16T06:31:43;12.10;;;3.55;;
22916;SDS011;11624;53.250;7.456;2023-07-16T06:34:22;12.60;;;4.05;;
22916;SDS011;11624;53.250;7.456;2023-07-16T06:36:50;12.70;;;3.67;;
22916;SDS011;11624;53.250;7.456;2023-07-16T06:39:21;12.07;;;3.95;;
22916;SDS011;11624;53.250;7.456;2023-07-16T06:41:49;13.70;;;3.90;;
22916;SDS011;11624;53.250;7.456;2023-07-16T06:44:17;9.98;;;3.60;;
22916;SDS011;11624;53.250;7.456;2023-07-16T06:46:46;13.38;;;3.78;;
22916;SDS011;11624;53.250;7.456;2023-07-16T06:49:14;11.70;;;4.00;;
22916;SDS011;11624;53.250;7.456;2023-07-16T06:51:42;10.38;;;3.45;;
22916;SDS011;11624;53.250;7.456;2023-07-16T06:54:11;11.65;;;3.92;;
22916;SDS011;11624;53.250;7.456;2023-07-16T06:56:41;12.85;;;3.88;;
22916;SDS011;11624;53.250;7.456;2023-07-16T06:59:09;12.73;;;4.10;;
22916;SDS011;11624;53.250;7.456;2023-07-16T07:01:37;14.48;;;4.10;;
22916;SDS011;11624;53.250;7.456;2023-07-16T07:04:09;12.15;;;4.00;;
22916;SDS011;11624;53.250;7.456;2023-07-16T07:06:37;13.40;;;4.55;;
22916;SDS011;11624;53.250;7.456;2023-07-16T07:09:06;14.23;;;4.28;;
22916;SDS011;11624;53.250;7.456;2023-07-16T07:11:34;14.07;;;4.88;;
22916;SDS011;11624;53.250;7.456;2023-07-16T07:14:04;14.57;;;4.47;;
22916;SDS011;11624;53.250;7.456;2023-07-16T07:16:35;13.75;;;3.90;;
22916;SDS011;11624;53.250;7.456;2023-07-16T07:19:04;12.77;;;4.35;;
22916;SDS011;11624;53.250;7.456;2023-07-16T07:21:32;14.25;;;4.13;;
22916;SDS011;11624;53.250;7.456;2023-07-16T07:24:00;10.38;;;3.67;;
22916;SDS011;11624;53.250;7.456;2023-07-16T07:26:29;13.40;;;4.35;;
22916;SDS011;11624;53.250;7.456;2023-07-16T07:28:57;18.10;;;5.57;;
22916;SDS011;11624;53.250;7.456;2023-07-16T07:31:27;12.60;;;4.38;;
22916;SDS011;11624;53.250;7.456;2023-07-16T07:33:55;11.48;;;3.90;;
22916;SDS011;11624;53.250;7.456;2023-07-16T07:36:25;14.45;;;4.03;;
22916;SDS011;11624;53.250;7.456;2023-07-16T07:38:53;10.85;;;4.20;;
22916;SDS011;11624;53.250;7.456;2023-07-16T07:41:22;14.13;;;4.35;;
22916;SDS011;11624;53.250;7.456;2023-07-16T07:43:50;12.55;;;4.15;;
22916;SDS011;11624;53.250;7.456;2023-07-16T07:46:18;20.52;;;3.92;;
22916;SDS011;11624;53.250;7.456;2023-07-16T07:48:48;13.07;;;4.10;;
22916;SDS011;11624;53.250;7.456;2023-07-16T07:51:16;12.07;;;3.72;;
22916;SDS011;11624;53.250;7.456;2023-07-16T07:53:45;11.80;;;3.85;;
22916;SDS011;11624;53.250;7.456;2023-07-16T07:56:13;12.35;;;4.13;;
22916;SDS011;11624;53.250;7.456;2023-07-16T07:58:42;11.43;;;3.88;;
22916;SDS011;11624;53.250;7.456;2023-07-16T08:01:11;12.82;;;4.15;;
22916;SDS011;11624;53.250;7.456;2023-07-16T08:03:40;16.50;;;4.50;;
22916;SDS011;11624;53.250;7.456;2023-07-16T08:06:11;12.43;;;4.60;;
22916;SDS011;11624;53.250;7.456;2023-07-16T08:08:40;14.73;;;4.38;;
22916;SDS011;11624;53.250;7.456;2023-07-16T08:11:09;13.52;;;4.45;;
22916;SDS011;11624;53.250;7.456;2023-07-16T08:13:37;15.35;;;4.35;;
22916;SDS011;11624;53.250;7.456;2023-07-16T08:16:05;11.52;;;3.75;;
22916;SDS011;11624;53.250;7.456;2023-07-16T08:18:34;9.63;;;3.70;;
22916;SDS011;11624;53.250;7.456;2023-07-16T08:21:02;12.90;;;4.47;;
22916;SDS011;11624;53.250;7.456;2023-07-16T08:23:32;11.50;;;4.22;;
22916;SDS011;11624;53.250;7.456;2023-07-16T08:26:00;12.68;;;4.45;;
22916;SDS011;11624;53.250;7.456;2023-07-16T08:28:29;18.35;;;4.00;;
22916;SDS011;11624;53.250;7.456;2023-07-16T08:30:57;12.27;;;4.20;;
22916;SDS011;11624;53.250;7.456;2023-07-16T08:33:28;13.98;;;4.28;;
22916;SDS011;11624;53.250;7.456;2023-07-16T08:35:56;14.43;;;4.53;;
22916;SDS011;11624;53.250;7.456;2023-07-16T08:38:24;13.27;;;4.47;;
22916;SDS011;11624;53.250;7.456;2023-07-16T08:40:54;12.80;;;4.35;;
22916;SDS011;11624;53.250;7.456;2023-07-16T08:43:23;13.45;;;4.95;;
22916;SDS011;11624;53.250;7.456;2023-07-16T08:45:51;12.73;;;4.35;;
22916;SDS011;11624;53.250;7.456;2023-07-16T08:48:20;13.32;;;3.70;;
22916;SDS011;11624;53.250;7.456;2023-07-16T08:50:50;12.20;;;4.18;;
22916;SDS011;11624;53.250;7.456;2023-07-16T08:53:18;10.18;;;3.90;;
22916;SDS011;11624;53.250;7.456;2023-07-16T08:55:47;14.32;;;4.10;;
22916;SDS011;11624;53.250;7.456;2023-07-16T08:58:20;12.23;;;4.20;;
22916;SDS011;11624;53.250;7.456;2023-07-16T09:00:51;12.95;;;3.65;;
22916;SDS011;11624;53.250;7.456;2023-07-16T09:03:20;10.32;;;4.07;;
22916;SDS011;11624;53.250;7.456;2023-07-16T09:05:48;13.02;;;4.07;;
22916;SDS011;11624;53.250;7.456;2023-07-16T09:08:17;13.48;;;4.40;;
22916;SDS011;11624;53.250;7.456;2023-07-16T09:10:52;14.68;;;4.65;;
22916;SDS011;11624;53.250;7.456;2023-07-16T09:13:23;12.25;;;3.78;;
22916;SDS011;11624;53.250;7.456;2023-07-16T09:15:54;14.43;;;3.92;;
22916;SDS011;11624;53.250;7.456;2023-07-16T09:18:24;13.43;;;4.47;;
22916;SDS011;11624;53.250;7.456;2023-07-16T09:20:54;9.88;;;3.75;;
22916;SDS011;11624;53.250;7.456;2023-07-16T09:23:24;12.85;;;4.50;;
22916;SDS011;11624;53.250;7.456;2023-07-16T09:25:54;13.15;;;3.97;;
22916;SDS011;11624;53.250;7.456;2023-07-16T09:28:24;12.23;;;4.35;;
22916;SDS011;11624;53.250;7.456;2023-07-16T09:30:52;15.57;;;4.13;;
22916;SDS011;11624;53.250;7.456;2023-07-16T09:33:21;13.15;;;4.47;;
22916;SDS011;11624;53.250;7.456;2023-07-16T09:35:52;14.10;;;4.50;;
22916;SDS011;11624;53.250;7.456;2023-07-16T09:38:21;11.25;;;3.83;;
22916;SDS011;11624;53.250;7.456;2023-07-16T09:40:51;13.50;;;4.30;;
22916;SDS011;11624;53.250;7.456;2023-07-16T09:43:20;15.45;;;4.65;;
22916;SDS011;11624;53.250;7.456;2023-07-16T09:45:50;12.80;;;4.28;;
22916;SDS011;11624;53.250;7.456;2023-07-16T09:48:18;14.65;;;4.55;;
22916;SDS011;11624;53.250;7.456;2023-07-16T09:50:49;14.73;;;4.32;;
22916;SDS011;11624;53.250;7.456;2023-07-16T09:53:20;11.32;;;4.15;;
22916;SDS011;11624;53.250;7.456;2023-07-16T09:55:52;16.10;;;4.10;;
22916;SDS011;11624;53.250;7.456;2023-07-16T09:58:21;12.95;;;4.68;;
22916;SDS011;11624;53.250;7.456;2023-07-16T10:00:53;13.75;;;4.32;;
22916;SDS011;11624;53.250;7.456;2023-07-16T10:03:22;12.88;;;4.57;;
22916;SDS011;11624;53.250;7.456;2023-07-16T10:05:51;16.88;;;5.13;;
22916;SDS011;11624;53.250;7.456;2023-07-16T10:08:19;13.48;;;5.10;;
22916;SDS011;11624;53.250;7.456;2023-07-16T10:10:48;11.57;;;4.60;;
22916;SDS011;11624;53.250;7.456;2023-07-16T10:13:23;13.00;;;4.72;;
22916;SDS011;11624;53.250;7.456;2023-07-16T10:15:54;12.18;;;4.53;;
22916;SDS011;11624;53.250;7.456;2023-07-16T10:18:27;12.43;;;4.18;;
22916;SDS011;11624;53.250;7.456;2023-07-16T10:21:02;14.20;;;4.47;;
22916;SDS011;11624;53.250;7.456;2023-07-16T10:23:36;13.77;;;4.78;;
22916;SDS011;11624;53.250;7.456;2023-07-16T10:26:06;13.65;;;4.40;;
22916;SDS011;11624;53.250;7.456;2023-07-16T10:28:36;14.13;;;5.03;;
22916;SDS011;11624;53.250;7.456;2023-07-16T10:31:16;15.68;;;5.05;;
22916;SDS011;11624;53.250;7.456;2023-07-16T10:33:55;12.60;;;4.88;;
22916;SDS011;11624;53.250;7.456;2023-07-16T10:36:25;13.35;;;4.53;;
22916;SDS011;11624;53.250;7.456;2023-07-16T10:38:54;12.82;;;4.60;;
22916;SDS011;11624;53.250;7.456;2023-07-16T10:41:22;13.55;;;4.85;;
22916;SDS011;11624;53.250;7.456;2023-07-16T10:43:50;14.52;;;4.82;;
22916;SDS011;11624;53.250;7.456;2023-07-16T10:46:22;13.25;;;4.60;;
22916;SDS011;11624;53.250;7.456;2023-07-16T10:48:51;13.23;;;4.80;;
22916;SDS011;11624;53.250;7.456;2023-07-16T10:51:24;12.32;;;4.65;;
22916;SDS011;11624;53.250;7.456;2023-07-16T10:53:54;14.68;;;4.72;;
22916;SDS011;11624;53.250;7.456;2023-07-16T10:56:23;14.63;;;5.05;;
22916;SDS011;11624;53.250;7.456;2023-07-16T10:58:52;13.35;;;4.28;;
22916;SDS011;11624;53.250;7.456;2023-07-16T11:01:20;12.73;;;4.75;;
22916;SDS011;11624;53.250;7.456;2023-07-16T11:03:50;15.25;;;4.43;;
22916;SDS011;11624;53.250;7.456;2023-07-16T11:06:19;13.32;;;5.28;;
22916;SDS011;11624;53.250;7.456;2023-07-16T11:08:48;16.40;;;5.50;;
22916;SDS011;11624;53.250;7.456;2023-07-16T11:11:26;12.57;;;4.43;;
22916;SDS011;11624;53.250;7.456;2023-07-16T11:13:55;15.82;;;5.25;;
22916;SDS011;11624;53.250;7.456;2023-07-16T11:16:25;16.75;;;4.47;;
22916;SDS011;11624;53.250;7.456;2023-07-16T11:18:54;12.60;;;4.57;;
22916;SDS011;11624;53.250;7.456;2023-07-16T11:21:22;13.18;;;4.50;;
22916;SDS011;11624;53.250;7.456;2023-07-16T11:23:50;12.68;;;4.43;;
22916;SDS011;11624;53.250;7.456;2023-07-16T11:26:19;14.00;;;5.40;;
22916;SDS011;11624;53.250;7.456;2023-07-16T11:28:49;12.35;;;4.45;;
22916;SDS011;11624;53.250;7.456;2023-07-16T11:31:18;12.90;;;4.45;;
22916;SDS011;11624;53.250;7.456;2023-07-16T11:33:51;14.70;;;5.32;;
22916;SDS011;11624;53.250;7.456;2023-07-16T11:36:20;14.18;;;4.88;;
22916;SDS011;11624;53.250;7.456;2023-07-16T11:38:48;12.27;;;4.93;;
22916;SDS011;11624;53.250;7.456;2023-07-16T11:41:19;13.50;;;5.28;;
22916;SDS011;11624;53.250;7.456;2023-07-16T11:43:48;12.98;;;4.25;;
22916;SDS011;11624;53.250;7.456;2023-07-16T11:46:17;12.68;;;4.30;;
22916;SDS011;11624;53.250;7.456;2023-07-16T11:48:46;13.57;;;4.80;;
22916;SDS011;11624;53.250;7.456;2023-07-16T11:51:16;14.02;;;4.60;;
22916;SDS011;11624;53.250;7.456;2023-07-16T11:53:44;13.80;;;4.57;;
22916;SDS011;11624;53.250;7.456;2023-07-16T11:56:12;16.92;;;4.72;;
22916;SDS011;11624;53.250;7.456;2023-07-16T11:58:41;12.80;;;4.20;;
22916;SDS011;11624;53.250;7.456;2023-07-16T12:01:10;13.50;;;4.50;;
22916;SDS011;11624;53.250;7.456;2023-07-16T12:03:38;14.43;;;5.10;;
22916;SDS011;11624;53.250;7.456;2023-07-16T12:06:07;15.73;;;4.82;;
22916;SDS011;11624;53.250;7.456;2023-07-16T12:08:37;10.30;;;3.88;;
22916;SDS011;11624;53.250;7.456;2023-07-16T12:11:06;11.57;;;4.18;;
22916;SDS011;11624;53.250;7.456;2023-07-16T12:13:34;12.80;;;4.28;;
22916;SDS011;11624;53.250;7.456;2023-07-16T12:16:01;12.65;;;4.53;;
22916;SDS011;11624;53.250;7.456;2023-07-16T12:18:30;13.60;;;4.43;;
22916;SDS011;11624;53.250;7.456;2023-07-16T12:20:58;13.50;;;4.20;;
22916;SDS011;11624;53.250;7.456;2023-07-16T12:23:26;11.25;;;4.10;;
22916;SDS011;11624;53.250;7.456;2023-07-16T12:25:56;12.23;;;4.07;;
22916;SDS011;11624;53.250;7.456;2023-07-16T12:28:25;13.85;;;4.32;;
22916;SDS011;11624;53.250;7.456;2023-07-16T12:30:53;12.00;;;4.10;;
22916;SDS011;11624;53.250;7.456;2023-07-16T12:33:22;11.68;;;4.05;;
22916;SDS011;11624;53.250;7.456;2023-07-16T12:35:50;12.18;;;4.18;;
22916;SDS011;11624;53.250;7.456;2023-07-16T12:38:20;11.70;;;4.43;;
22916;SDS011;11624;53.250;7.456;2023-07-16T12:40:49;10.95;;;4.30;;
22916;SDS011;11624;53.250;7.456;2023-07-16T12:43:19;12.25;;;4.25;;
22916;SDS011;11624;53.250;7.456;2023-07-16T12:45:47;11.32;;;4.43;;
22916;SDS011;11624;53.250;7.456;2023-07-16T12:48:15;14.88;;;5.03;;
22916;SDS011;11624;53.250;7.456;2023-07-16T12:50:44;11.50;;;4.53;;
22916;SDS011;11624;53.250;7.456;2023-07-16T12:53:12;11.63;;;4.50;;
22916;SDS011;11624;53.250;7.456;2023-07-16T12:55:41;14.05;;;5.20;;
22916;SDS011;11624;53.250;7.456;2023-07-16T12:58:09;12.43;;;4.43;;
22916;SDS011;11624;53.250;7.456;2023-07-16T13:00:39;12.95;;;4.53;;
22916;SDS011;11624;53.250;7.456;2023-07-16T13:03:11;10.35;;;4.25;;
22916;SDS011;11624;53.250;7.456;2023-07-16T13:05:43;9.45;;;3.65;;
22916;SDS011;11624;53.250;7.456;2023-07-16T13:08:12;13.35;;;4.22;;
22916;SDS011;11624;53.250;7.456;2023-07-16T13:10:40;10.50;;;3.80;;
22916;SDS011;11624;53.250;7.456;2023-07-16T13:13:09;11.77;;;4.20;;
22916;SDS011;11624;53.250;7.456;2023-07-16T13:15:39;10.63;;;3.70;;
22916;SDS011;11624;53.250;7.456;2023-07-16T13:18:09;12.00;;;3.63;;
22916;SDS011;11624;53.250;7.456;2023-07-16T13:20:38;13.20;;;4.22;;
22916;SDS011;11624;53.250;7.456;2023-07-16T13:23:07;12.93;;;4.18;;
22916;SDS011;11624;53.250;7.456;2023-07-16T13:25:36;11.40;;;3.92;;
22916;SDS011;11624;53.250;7.456;2023-07-16T13:28:06;13.18;;;4.38;;
22916;SDS011;11624;53.250;7.456;2023-07-16T13:30:34;9.52;;;3.85;;
22916;SDS011;11624;53.250;7.456;2023-07-16T13:33:04;11.35;;;4.55;;
22916;SDS011;11624;53.250;7.456;2023-07-16T13:35:33;12.13;;;4.40;;
22916;SDS011;11624;53.250;7.456;2023-07-16T13:38:01;14.65;;;4.70;;
22916;SDS011;11624;53.250;7.456;2023-07-16T13:40:29;15.15;;;4.65;;
22916;SDS011;11624;53.250;7.456;2023-07-16T13:42:58;15.10;;;4.80;;
22916;SDS011;11624;53.250;7.456;2023-07-16T13:45:26;13.40;;;4.78;;
22916;SDS011;11624;53.250;7.456;2023-07-16T13:47:54;13.10;;;4.93;;
22916;SDS011;11624;53.250;7.456;2023-07-16T13:50:24;14.90;;;5.00;;
22916;SDS011;11624;53.250;7.456;2023-07-16T13:52:53;14.30;;;5.03;;
22916;SDS011;11624;53.250;7.456;2023-07-16T13:55:21;11.90;;;4.50;;
22916;SDS011;11624;53.250;7.456;2023-07-16T13:57:49;17.05;;;5.22;;
22916;SDS011;11624;53.250;7.456;2023-07-16T14:00:18;17.20;;;5.65;;
22916;SDS011;11624;53.250;7.456;2023-07-16T14:02:47;11.85;;;4.43;;
22916;SDS011;11624;53.250;7.456;2023-07-16T14:05:15;13.38;;;4.82;;
22916;SDS011;11624;53.250;7.456;2023-07-16T14:07:45;12.98;;;4.78;;
22916;SDS011;11624;53.250;7.456;2023-07-16T14:10:14;16.40;;;5.20;;
22916;SDS011;11624;53.250;7.456;2023-07-16T14:12:42;13.75;;;4.45;;
22916;SDS011;11624;53.250;7.456;2023-07-16T14:15:11;13.68;;;4.15;;
22916;SDS011;11624;53.250;7.456;2023-07-16T14:17:39;12.63;;;4.15;;
22916;SDS011;11624;53.250;7.456;2023-07-16T14:20:08;14.85;;;4.22;;
22916;SDS011;11624;53.250;7.456;2023-07-16T14:22:37;10.45;;;4.03;;
22916;SDS011;11624;53.250;7.456;2023-07-16T14:25:07;11.75;;;4.00;;
22916;SDS011;11624;53.250;7.456;2023-07-16T14:27:36;10.38;;;4.10;;
22916;SDS011;11624;53.250;7.456;2023-07-16T14:30:05;11.00;;;3.97;;
22916;SDS011;11624;53.250;7.456;2023-07-16T14:32:35;12.30;;;4.57;;
22916;SDS011;11624;53.250;7.456;2023-07-16T14:35:03;14.20;;;4.70;;
22916;SDS011;11624;53.250;7.456;2023-07-16T14:37:47;13.65;;;4.43;;
22916;SDS011;11624;53.250;7.456;2023-07-16T14:40:17;14.05;;;4.75;;
22916;SDS011;11624;53.250;7.456;2023-07-16T14:42:46;13.88;;;4.43;;
22916;SDS011;11624;53.250;7.456;2023-07-16T14:45:14;11.35;;;4.35;;
22916;SDS011;11624;53.250;7.456;2023-07-16T14:47:44;15.63;;;5.00;;